sensor_id;sensor_type;location;lat;lon;timestamp;pressure;altitude;pressure_sealevel;temperature;humidity
8705;BME280;4389;41.932;25.904;2022-09-01T00:01:52;100179.34;;;20.65;91.06
8705;BME280;4389;41.932;25.904;2022-09-01T00:04:21;100179.13;;;20.60;91.59
8705;BME280;4389;41.932;25.904;2022-09-01T00:06:52;100181.38;;;20.76;91.23
8705;BME280;4389;41.932;25.904;2022-09-01T00:09:21;100184.50;;;20.86;90.52
8705;BME280;4389;41.932;25.904;2022-09-01T00:11:52;100180.34;;;20.90;90.02
8705;BME280;4389;41.932;25.904;2022-09-01T00:14:21;100193.41;;;20.87;90.17
8705;BME280;4389;41.932;25.904;2022-09-01T00:16:48;100182.66;;;20.93;89.93
8705;BME280;4389;41.932;25.904;2022-09-01T00:19:16;100177.84;;;20.82;90.70
8705;BME280;4389;41.932;25.904;2022-09-01T00:21:44;100187.38;;;20.85;90.50
8705;BME280;4389;41.932;25.904;2022-09-01T00:24:13;100194.44;;;20.79;90.42
8705;BME280;4389;41.932;25.904;2022-09-01T00:26:41;100190.28;;;20.83;90.28
8705;BME280;4389;41.932;25.904;2022-09-01T00:29:08;100195.66;;;20.83;90.58
8705;BME280;4389;41.932;25.904;2022-09-01T00:31:35;100194.00;;;20.82;90.49
8705;BME280;4389;41.932;25.904;2022-09-01T00:34:03;100187.59;;;20.77;91.06
8705;BME280;4389;41.932;25.904;2022-09-01T00:36:31;100191.97;;;20.91;90.46
8705;BME280;4389;41.932;25.904;2022-09-01T00:38:58;100200.44;;;21.07;90.00
8705;BME280;4389;41.932;25.904;2022-09-01T00:41:27;100205.16;;;21.05;89.54
8705;BME280;4389;41.932;25.904;2022-09-01T00:43:56;100207.69;;;21.00;89.06
8705;BME280;4389;41.932;25.904;2022-09-01T00:46:27;100201.28;;;20.88;89.59
8705;BME280;4389;41.932;25.904;2022-09-01T00:48:57;100202.28;;;20.74;89.88
8705;BME280;4389;41.932;25.904;2022-09-01T00:51:25;100200.44;;;20.68;90.39
8705;BME280;4389;41.932;25.904;2022-09-01T00:53:56;100198.78;;;20.61;90.90
8705;BME280;4389;41.932;25.904;2022-09-01T00:56:24;100198.56;;;20.69;90.45
8705;BME280;4389;41.932;25.904;2022-09-01T00:58:53;100189.88;;;20.60;90.81
8705;BME280;4389;41.932;25.904;2022-09-01T01:01:20;100185.75;;;20.58;91.16
8705;BME280;4389;41.932;25.904;2022-09-01T01:03:48;100181.41;;;20.50;91.50
8705;BME280;4389;41.932;25.904;2022-09-01T01:06:15;100182.41;;;20.49;92.09
8705;BME280;4389;41.932;25.904;2022-09-01T01:08:45;100180.38;;;20.38;92.45
8705;BME280;4389;41.932;25.904;2022-09-01T01:11:24;100182.44;;;20.36;93.12
8705;BME280;4389;41.932;25.904;2022-09-01T01:13:55;100185.34;;;20.28;93.20
8705;BME280;4389;41.932;25.904;2022-09-01T01:16:25;100188.19;;;20.07;93.89
8705;BME280;4389;41.932;25.904;2022-09-01T01:18:52;100187.34;;;20.13;94.21
8705;BME280;4389;41.932;25.904;2022-09-01T01:21:22;100173.53;;;20.16;94.00
8705;BME280;4389;41.932;25.904;2022-09-01T01:24:24;100167.94;;;20.24;93.90
8705;BME280;4389;41.932;25.904;2022-09-01T01:26:52;100174.16;;;20.31;93.45
8705;BME280;4389;41.932;25.904;2022-09-01T01:29:21;100168.16;;;20.29;93.52
8705;BME280;4389;41.932;25.904;2022-09-01T01:31:49;100157.19;;;20.31;93.45
8705;BME280;4389;41.932;25.904;2022-09-01T01:34:19;100154.31;;;20.32;93.34
8705;BME280;4389;41.932;25.904;2022-09-01T01:36:47;100152.25;;;20.28;93.45
8705;BME280;4389;41.932;25.904;2022-09-01T01:39:17;100149.94;;;20.18;93.95
8705;BME280;4389;41.932;25.904;2022-09-01T01:41:47;100158.84;;;20.12;94.03
8705;BME280;4389;41.932;25.904;2022-09-01T01:44:17;100152.22;;;20.15;94.30
8705;BME280;4389;41.932;25.904;2022-09-01T01:46:47;100149.94;;;20.18;94.41
8705;BME280;4389;41.932;25.904;2022-09-01T01:49:15;100151.00;;;20.17;94.59
8705;BME280;4389;41.932;25.904;2022-09-01T01:51:44;100148.09;;;20.19;94.43
8705;BME280;4389;41.932;25.904;2022-09-01T01:54:12;100155.94;;;20.20;94.04
8705;BME280;4389;41.932;25.904;2022-09-01T01:56:40;100142.72;;;20.06;93.99
8705;BME280;4389;41.932;25.904;2022-09-01T01:59:08;100149.72;;;20.00;93.98
8705;BME280;4389;41.932;25.904;2022-09-01T02:01:36;100143.28;;;19.88;94.04
8705;BME280;4389;41.932;25.904;2022-09-01T02:04:03;100144.03;;;19.69;94.57
8705;BME280;4389;41.932;25.904;2022-09-01T02:06:32;100145.47;;;19.59;95.22
8705;BME280;4389;41.932;25.904;2022-09-01T02:09:00;100143.38;;;19.54;95.81
8705;BME280;4389;41.932;25.904;2022-09-01T02:11:28;100138.00;;;19.54;95.68
8705;BME280;4389;41.932;25.904;2022-09-01T02:13:59;100141.72;;;19.53;95.53
8705;BME280;4389;41.932;25.904;2022-09-01T02:16:29;100141.97;;;19.58;95.16
8705;BME280;4389;41.932;25.904;2022-09-01T02:18:58;100136.97;;;19.49;95.11
8705;BME280;4389;41.932;25.904;2022-09-01T02:21:26;100145.88;;;19.56;95.65
8705;BME280;4389;41.932;25.904;2022-09-01T02:23:57;100134.25;;;19.42;96.26
8705;BME280;4389;41.932;25.904;2022-09-01T02:26:26;100137.16;;;19.47;96.98
8705;BME280;4389;41.932;25.904;2022-09-01T02:28:57;100129.34;;;19.52;96.75
8705;BME280;4389;41.932;25.904;2022-09-01T02:31:27;100130.56;;;19.50;97.02
8705;BME280;4389;41.932;25.904;2022-09-01T02:33:56;100132.03;;;19.52;96.46
8705;BME280;4389;41.932;25.904;2022-09-01T02:36:24;100138.75;;;19.35;96.96
8705;BME280;4389;41.932;25.904;2022-09-01T02:38:52;100139.59;;;19.29;97.87
8705;BME280;4389;41.932;25.904;2022-09-01T02:41:20;100133.63;;;19.06;100.00
8705;BME280;4389;41.932;25.904;2022-09-01T02:43:48;100143.13;;;19.02;100.00
8705;BME280;4389;41.932;25.904;2022-09-01T02:46:15;100139.50;;;19.16;100.00
8705;BME280;4389;41.932;25.904;2022-09-01T02:48:45;100138.81;;;19.08;100.00
8705;BME280;4389;41.932;25.904;2022-09-01T02:51:16;100139.00;;;19.06;100.00
8705;BME280;4389;41.932;25.904;2022-09-01T02:53:44;100136.47;;;18.92;100.00
8705;BME280;4389;41.932;25.904;2022-09-01T02:56:14;100142.25;;;18.95;100.00
8705;BME280;4389;41.932;25.904;2022-09-01T02:58:44;100140.38;;;18.89;100.00
8705;BME280;4389;41.932;25.904;2022-09-01T03:01:13;100139.75;;;18.88;100.00
8705;BME280;4389;41.932;25.904;2022-09-01T03:03:47;100142.25;;;18.95;100.00
8705;BME280;4389;41.932;25.904;2022-09-01T03:06:15;100147.91;;;19.07;100.00
8705;BME280;4389;41.932;25.904;2022-09-01T03:08:43;100154.47;;;19.04;100.00
8705;BME280;4389;41.932;25.904;2022-09-01T03:11:10;100150.13;;;19.03;100.00
8705;BME280;4389;41.932;25.904;2022-09-01T03:13:38;100148.69;;;19.01;100.00
8705;BME280;4389;41.932;25.904;2022-09-01T03:16:06;100149.97;;;19.05;100.00
8705;BME280;4389;41.932;25.904;2022-09-01T03:18:33;100145.88;;;19.15;100.00
8705;BME280;4389;41.932;25.904;2022-09-01T03:21:02;100147.59;;;19.23;99.88
8705;BME280;4389;41.932;25.904;2022-09-01T03:23:30;100156.84;;;19.20;99.80
8705;BME280;4389;41.932;25.904;2022-09-01T03:25:57;100158.88;;;19.18;99.58
8705;BME280;4389;41.932;25.904;2022-09-01T03:28:24;100151.78;;;19.04;99.97
8705;BME280;4389;41.932;25.904;2022-09-01T03:30:55;100157.78;;;19.06;100.00
8705;BME280;4389;41.932;25.904;2022-09-01T03:33:24;100172.06;;;19.13;100.00
8705;BME280;4389;41.932;25.904;2022-09-01T03:35:51;100167.03;;;18.97;99.69
8705;BME280;4389;41.932;25.904;2022-09-01T03:38:19;100169.03;;;18.89;99.92
8705;BME280;4389;41.932;25.904;2022-09-01T03:40:50;100173.59;;;18.95;99.46
8705;BME280;4389;41.932;25.904;2022-09-01T03:43:18;100168.28;;;19.01;99.20
8705;BME280;4389;41.932;25.904;2022-09-01T03:45:48;100169.09;;;19.02;98.49
8705;BME280;4389;41.932;25.904;2022-09-01T03:48:15;100167.44;;;18.94;99.11
8705;BME280;4389;41.932;25.904;2022-09-01T03:50:44;100171.50;;;18.90;99.07
8705;BME280;4389;41.932;25.904;2022-09-01T03:53:13;100170.72;;;18.96;99.58
8705;BME280;4389;41.932;25.904;2022-09-01T03:55:44;100170.03;;;19.15;99.30
8705;BME280;4389;41.932;25.904;2022-09-01T03:58:13;100181.06;;;19.27;98.56
8705;BME280;4389;41.932;25.904;2022-09-01T04:00:45;100181.31;;;19.38;97.13
8705;BME280;4389;41.932;25.904;2022-09-01T04:03:14;100172.66;;;19.36;96.45
8705;BME280;4389;41.932;25.904;2022-09-01T04:05:47;100173.09;;;19.46;95.93
8705;BME280;4389;41.932;25.904;2022-09-01T04:08:14;100182.91;;;19.80;94.91
8705;BME280;4389;41.932;25.904;2022-09-01T04:10:46;100181.97;;;20.13;93.02
8705;BME280;4389;41.932;25.904;2022-09-01T04:13:16;100179.50;;;20.05;91.25
8705;BME280;4389;41.932;25.904;2022-09-01T04:15:43;100181.72;;;19.95;91.36
8705;BME280;4389;41.932;25.904;2022-09-01T04:18:10;100178.84;;;19.97;91.63
8705;BME280;4389;41.932;25.904;2022-09-01T04:20:46;100188.19;;;20.07;91.62
8705;BME280;4389;41.932;25.904;2022-09-01T04:23:16;100188.63;;;20.50;90.70
8705;BME280;4389;41.932;25.904;2022-09-01T04:25:53;100189.88;;;21.06;87.21
8705;BME280;4389;41.932;25.904;2022-09-01T04:28:22;100202.94;;;21.59;85.00
8705;BME280;4389;41.932;25.904;2022-09-01T04:30:53;100192.38;;;22.08;82.35
8705;BME280;4389;41.932;25.904;2022-09-01T04:33:23;100201.03;;;22.41;81.16
8705;BME280;4389;41.932;25.904;2022-09-01T04:35:50;100202.28;;;22.14;81.40
8705;BME280;4389;41.932;25.904;2022-09-01T04:38:20;100200.50;;;21.51;83.65
8705;BME280;4389;41.932;25.904;2022-09-01T04:40:47;100198.09;;;21.30;85.50
8705;BME280;4389;41.932;25.904;2022-09-01T04:43:16;100197.50;;;21.15;86.22
8705;BME280;4389;41.932;25.904;2022-09-01T04:45:45;100189.88;;;20.86;87.76
8705;BME280;4389;41.932;25.904;2022-09-01T04:48:14;100196.91;;;20.74;89.05
8705;BME280;4389;41.932;25.904;2022-09-01T04:50:42;100192.38;;;20.75;89.59
8705;BME280;4389;41.932;25.904;2022-09-01T04:53:09;100199.38;;;20.82;89.62
8705;BME280;4389;41.932;25.904;2022-09-01T04:55:38;100197.75;;;20.94;89.78
8705;BME280;4389;41.932;25.904;2022-09-01T04:58:09;100203.94;;;21.01;89.24
8705;BME280;4389;41.932;25.904;2022-09-01T05:00:39;100202.25;;;21.13;88.90
8705;BME280;4389;41.932;25.904;2022-09-01T05:03:06;100204.75;;;21.15;88.25
8705;BME280;4389;41.932;25.904;2022-09-01T05:05:36;100215.94;;;21.12;89.67
8705;BME280;4389;41.932;25.904;2022-09-01T05:08:08;100209.25;;;21.27;88.76
8705;BME280;4389;41.932;25.904;2022-09-01T05:10:40;100214.03;;;21.25;88.77
8705;BME280;4389;41.932;25.904;2022-09-01T05:13:09;100215.03;;;21.37;88.89
8705;BME280;4389;41.932;25.904;2022-09-01T05:15:39;100215.63;;;21.52;88.04
8705;BME280;4389;41.932;25.904;2022-09-01T05:18:12;100216.41;;;21.72;87.39
8705;BME280;4389;41.932;25.904;2022-09-01T05:20:41;100215.69;;;21.90;86.61
8705;BME280;4389;41.932;25.904;2022-09-01T05:23:09;100208.81;;;21.94;86.76
8705;BME280;4389;41.932;25.904;2022-09-01T05:25:40;100218.72;;;22.06;86.61
8705;BME280;4389;41.932;25.904;2022-09-01T05:28:09;100215.41;;;22.04;86.88
8705;BME280;4389;41.932;25.904;2022-09-01T05:30:36;100207.25;;;22.17;85.71
8705;BME280;4389;41.932;25.904;2022-09-01T05:33:06;100209.66;;;22.25;84.97
8705;BME280;4389;41.932;25.904;2022-09-01T05:35:38;100199.53;;;22.52;83.60
8705;BME280;4389;41.932;25.904;2022-09-01T05:38:08;100208.19;;;22.60;83.38
8705;BME280;4389;41.932;25.904;2022-09-01T05:40:38;100209.63;;;22.63;82.50
8705;BME280;4389;41.932;25.904;2022-09-01T05:43:07;100210.41;;;22.45;82.79
8705;BME280;4389;41.932;25.904;2022-09-01T05:45:39;100195.59;;;22.23;82.73
8705;BME280;4389;41.932;25.904;2022-09-01T05:48:11;100202.03;;;22.53;82.95
8705;BME280;4389;41.932;25.904;2022-09-01T05:50:42;100195.19;;;22.75;81.94
8705;BME280;4389;41.932;25.904;2022-09-01T05:53:10;100196.72;;;22.89;81.66
8705;BME280;4389;41.932;25.904;2022-09-01T05:55:42;100192.38;;;22.88;80.05
8705;BME280;4389;41.932;25.904;2022-09-01T05:58:10;100189.25;;;23.09;79.55
8705;BME280;4389;41.932;25.904;2022-09-01T06:00:39;100189.19;;;22.98;79.77
8705;BME280;4389;41.932;25.904;2022-09-01T06:03:09;100195.72;;;23.08;80.46
8705;BME280;4389;41.932;25.904;2022-09-01T06:05:36;100196.88;;;23.37;78.73
8705;BME280;4389;41.932;25.904;2022-09-01T06:08:05;100195.78;;;23.62;77.98
8705;BME280;4389;41.932;25.904;2022-09-01T06:10:36;100210.75;;;23.76;77.12
8705;BME280;4389;41.932;25.904;2022-09-01T06:13:07;100194.38;;;23.89;76.83
8705;BME280;4389;41.932;25.904;2022-09-01T06:15:35;100195.84;;;24.03;75.96
8705;BME280;4389;41.932;25.904;2022-09-01T06:18:04;100197.84;;;24.08;75.23
8705;BME280;4389;41.932;25.904;2022-09-01T06:20:39;100200.13;;;24.11;75.20
8705;BME280;4389;41.932;25.904;2022-09-01T06:23:08;100207.94;;;24.30;74.16
8705;BME280;4389;41.932;25.904;2022-09-01T06:25:40;100212.19;;;24.26;74.21
8705;BME280;4389;41.932;25.904;2022-09-01T06:28:08;100214.78;;;24.33;73.40
8705;BME280;4389;41.932;25.904;2022-09-01T06:30:36;100212.56;;;24.41;73.41
8705;BME280;4389;41.932;25.904;2022-09-01T06:33:04;100210.78;;;24.06;73.79
8705;BME280;4389;41.932;25.904;2022-09-01T06:35:34;100211.56;;;24.24;73.56
8705;BME280;4389;41.932;25.904;2022-09-01T06:38:02;100222.84;;;24.21;73.21
8705;BME280;4389;41.932;25.904;2022-09-01T06:40:29;100216.56;;;24.38;72.14
8705;BME280;4389;41.932;25.904;2022-09-01T06:42:56;100214.25;;;24.53;71.56
8705;BME280;4389;41.932;25.904;2022-09-01T06:45:25;100218.50;;;24.61;71.67
8705;BME280;4389;41.932;25.904;2022-09-01T06:47:52;100204.88;;;24.67;70.90
8705;BME280;4389;41.932;25.904;2022-09-01T06:50:21;100209.00;;;24.70;71.47
8705;BME280;4389;41.932;25.904;2022-09-01T06:52:49;100213.00;;;24.79;69.98
8705;BME280;4389;41.932;25.904;2022-09-01T06:55:27;100201.00;;;24.75;70.08
8705;BME280;4389;41.932;25.904;2022-09-01T06:57:58;100219.38;;;24.96;69.16
8705;BME280;4389;41.932;25.904;2022-09-01T07:00:25;100217.16;;;25.04;68.35
8705;BME280;4389;41.932;25.904;2022-09-01T07:02:54;100223.13;;;25.18;67.53
8705;BME280;4389;41.932;25.904;2022-09-01T07:05:22;100218.69;;;25.12;66.93
8705;BME280;4389;41.932;25.904;2022-09-01T07:07:51;100218.44;;;25.02;67.95
8705;BME280;4389;41.932;25.904;2022-09-01T07:10:21;100218.31;;;25.20;68.08
8705;BME280;4389;41.932;25.904;2022-09-01T07:12:50;100217.75;;;25.41;66.96
8705;BME280;4389;41.932;25.904;2022-09-01T07:15:18;100216.09;;;25.40;66.80
8705;BME280;4389;41.932;25.904;2022-09-01T07:17:46;100208.91;;;25.45;66.85
8705;BME280;4389;41.932;25.904;2022-09-01T07:20:15;100211.09;;;25.60;66.11
8705;BME280;4389;41.932;25.904;2022-09-01T07:22:43;100221.91;;;25.71;65.62
8705;BME280;4389;41.932;25.904;2022-09-01T07:25:10;100226.34;;;25.89;63.30
8705;BME280;4389;41.932;25.904;2022-09-01T07:27:38;100227.25;;;26.06;62.08
8705;BME280;4389;41.932;25.904;2022-09-01T07:30:07;100222.84;;;26.16;61.02
8705;BME280;4389;41.932;25.904;2022-09-01T07:32:36;100223.84;;;26.27;60.57
8705;BME280;4389;41.932;25.904;2022-09-01T07:35:06;100222.72;;;26.39;59.83
8705;BME280;4389;41.932;25.904;2022-09-01T07:37:33;100226.06;;;26.30;60.15
8705;BME280;4389;41.932;25.904;2022-09-01T07:40:04;100222.44;;;26.52;60.47
8705;BME280;4389;41.932;25.904;2022-09-01T07:42:32;100223.28;;;26.69;59.77
8705;BME280;4389;41.932;25.904;2022-09-01T07:44:59;100218.09;;;26.84;59.18
8705;BME280;4389;41.932;25.904;2022-09-01T07:47:33;100214.69;;;26.94;57.76
8705;BME280;4389;41.932;25.904;2022-09-01T07:50:01;100219.47;;;26.87;57.80
8705;BME280;4389;41.932;25.904;2022-09-01T07:52:32;100216.53;;;26.72;58.18
8705;BME280;4389;41.932;25.904;2022-09-01T07:55:00;100215.13;;;26.86;58.03
8705;BME280;4389;41.932;25.904;2022-09-01T07:57:27;100211.34;;;26.87;58.67
8705;BME280;4389;41.932;25.904;2022-09-01T07:59:54;100206.41;;;27.00;58.02
8705;BME280;4389;41.932;25.904;2022-09-01T08:02:22;100214.56;;;26.84;58.38
8705;BME280;4389;41.932;25.904;2022-09-01T08:04:50;100202.97;;;27.10;58.90
8705;BME280;4389;41.932;25.904;2022-09-01T08:07:17;100200.38;;;27.15;57.31
8705;BME280;4389;41.932;25.904;2022-09-01T08:09:45;100206.09;;;27.35;56.87
8705;BME280;4389;41.932;25.904;2022-09-01T08:12:13;100203.81;;;27.27;56.51
8705;BME280;4389;41.932;25.904;2022-09-01T08:14:40;100200.44;;;27.58;56.13
8705;BME280;4389;41.932;25.904;2022-09-01T08:17:07;100200.00;;;27.87;55.00
8705;BME280;4389;41.932;25.904;2022-09-01T08:19:35;100199.81;;;27.94;55.46
8705;BME280;4389;41.932;25.904;2022-09-01T08:22:03;100202.16;;;27.85;55.13
8705;BME280;4389;41.932;25.904;2022-09-01T08:24:30;100198.69;;;27.90;55.08
8705;BME280;4389;41.932;25.904;2022-09-01T08:26:57;100202.34;;;27.79;55.11
8705;BME280;4389;41.932;25.904;2022-09-01T08:29:24;100186.16;;;27.89;54.85
8705;BME280;4389;41.932;25.904;2022-09-01T08:31:51;100194.88;;;28.17;53.85
8705;BME280;4389;41.932;25.904;2022-09-01T08:34:19;100186.16;;;28.42;52.86
8705;BME280;4389;41.932;25.904;2022-09-01T08:36:46;100190.31;;;28.23;52.87
8705;BME280;4389;41.932;25.904;2022-09-01T08:39:14;100190.16;;;28.08;53.72
8705;BME280;4389;41.932;25.904;2022-09-01T08:41:43;100183.78;;;28.24;54.09
8705;BME280;4389;41.932;25.904;2022-09-01T08:44:18;100182.75;;;28.30;53.63
8705;BME280;4389;41.932;25.904;2022-09-01T08:46:48;100178.56;;;28.44;52.46
8705;BME280;4389;41.932;25.904;2022-09-01T08:49:22;100174.47;;;28.78;51.89
8705;BME280;4389;41.932;25.904;2022-09-01T08:51:53;100174.19;;;28.74;52.28
8705;BME280;4389;41.932;25.904;2022-09-01T08:54:29;100172.94;;;28.92;51.06
8705;BME280;4389;41.932;25.904;2022-09-01T08:57:01;100169.63;;;28.85;51.24
8705;BME280;4389;41.932;25.904;2022-09-01T08:59:30;100161.06;;;29.03;50.65
8705;BME280;4389;41.932;25.904;2022-09-01T09:02:01;100160.56;;;29.11;50.24
8705;BME280;4389;41.932;25.904;2022-09-01T09:04:43;100160.06;;;29.19;49.85
8705;BME280;4389;41.932;25.904;2022-09-01T09:07:21;100149.81;;;29.41;49.57
8705;BME280;4389;41.932;25.904;2022-09-01T09:09:56;100149.44;;;29.74;48.59
8705;BME280;4389;41.932;25.904;2022-09-01T09:12:35;100143.53;;;30.12;47.50
8705;BME280;4389;41.932;25.904;2022-09-01T09:15:14;100133.09;;;29.99;46.98
8705;BME280;4389;41.932;25.904;2022-09-01T09:17:48;100126.53;;;29.90;47.52
8705;BME280;4389;41.932;25.904;2022-09-01T09:20:20;100127.09;;;30.02;46.82
8705;BME280;4389;41.932;25.904;2022-09-01T09:22:48;100122.47;;;30.07;47.03
8705;BME280;4389;41.932;25.904;2022-09-01T09:25:17;100119.13;;;29.90;47.00
8705;BME280;4389;41.932;25.904;2022-09-01T09:27:45;100114.78;;;29.94;46.54
8705;BME280;4389;41.932;25.904;2022-09-01T09:30:18;100109.59;;;29.88;46.78
8705;BME280;4389;41.932;25.904;2022-09-01T09:32:48;100119.72;;;30.07;46.50
8705;BME280;4389;41.932;25.904;2022-09-01T09:35:21;100114.84;;;30.24;45.47
8705;BME280;4389;41.932;25.904;2022-09-01T09:37:48;100098.16;;;30.50;45.13
8705;BME280;4389;41.932;25.904;2022-09-01T09:40:18;100103.66;;;30.21;45.33
8705;BME280;4389;41.932;25.904;2022-09-01T09:43:01;100097.09;;;30.22;45.93
8705;BME280;4389;41.932;25.904;2022-09-01T09:45:31;100096.00;;;30.42;45.93
8705;BME280;4389;41.932;25.904;2022-09-01T09:47:59;100095.44;;;30.35;45.38
8705;BME280;4389;41.932;25.904;2022-09-01T09:50:31;100097.91;;;30.22;45.15
8705;BME280;4389;41.932;25.904;2022-09-01T09:53:14;100079.34;;;30.69;44.89
8705;BME280;4389;41.932;25.904;2022-09-01T09:55:55;100088.28;;;30.94;43.35
8705;BME280;4389;41.932;25.904;2022-09-01T09:58:24;100081.16;;;31.03;42.89
8705;BME280;4389;41.932;25.904;2022-09-01T10:01:09;100082.16;;;31.27;43.21
8705;BME280;4389;41.932;25.904;2022-09-01T10:03:41;100075.06;;;31.21;43.29
8705;BME280;4389;41.932;25.904;2022-09-01T10:06:10;100076.69;;;31.27;42.43
8705;BME280;4389;41.932;25.904;2022-09-01T10:08:40;100074.00;;;31.22;42.50
8705;BME280;4389;41.932;25.904;2022-09-01T10:11:25;100066.09;;;31.64;42.05
8705;BME280;4389;41.932;25.904;2022-09-01T10:13:53;100067.34;;;31.87;41.14
8705;BME280;4389;41.932;25.904;2022-09-01T10:16:26;100062.50;;;31.74;41.59
8705;BME280;4389;41.932;25.904;2022-09-01T10:18:56;100060.88;;;31.73;41.74
8705;BME280;4389;41.932;25.904;2022-09-01T10:21:33;100052.38;;;31.69;41.34
8705;BME280;4389;41.932;25.904;2022-09-01T10:24:10;100056.09;;;31.93;41.41
8705;BME280;4389;41.932;25.904;2022-09-01T10:26:41;100054.97;;;31.94;41.79
8705;BME280;4389;41.932;25.904;2022-09-01T10:29:14;100058.38;;;31.76;42.69
8705;BME280;4389;41.932;25.904;2022-09-01T10:31:43;100056.16;;;31.78;41.14
8705;BME280;4389;41.932;25.904;2022-09-01T10:34:14;100055.13;;;31.64;42.37
8705;BME280;4389;41.932;25.904;2022-09-01T10:36:44;100055.66;;;31.71;41.74
8705;BME280;4389;41.932;25.904;2022-09-01T10:39:14;100047.38;;;31.38;41.97
8705;BME280;4389;41.932;25.904;2022-09-01T10:42:00;100041.03;;;31.42;41.72
8705;BME280;4389;41.932;25.904;2022-09-01T10:44:34;100040.78;;;31.87;40.78
8705;BME280;4389;41.932;25.904;2022-09-01T10:47:08;100043.28;;;32.22;38.64
8705;BME280;4389;41.932;25.904;2022-09-01T10:52:58;100039.63;;;32.84;38.48
8705;BME280;4389;41.932;25.904;2022-09-01T10:55:30;100034.75;;;32.99;38.58
8705;BME280;4389;41.932;25.904;2022-09-01T10:58:11;100038.75;;;33.12;37.81
8705;BME280;4389;41.932;25.904;2022-09-01T11:00:51;100035.38;;;32.96;38.29
8705;BME280;4389;41.932;25.904;2022-09-01T11:06:44;100037.00;;;32.74;39.05
8705;BME280;4389;41.932;25.904;2022-09-01T11:09:21;100030.00;;;32.86;39.08
8705;BME280;4389;41.932;25.904;2022-09-01T11:14:49;100033.94;;;33.22;37.79
8705;BME280;4389;41.932;25.904;2022-09-01T11:17:20;100022.69;;;33.42;36.89
8705;BME280;4389;41.932;25.904;2022-09-01T11:19:55;100019.75;;;33.57;37.11
8705;BME280;4389;41.932;25.904;2022-09-01T11:22:26;100019.75;;;33.76;36.57
8705;BME280;4389;41.932;25.904;2022-09-01T11:28:01;100024.13;;;33.40;36.59
8705;BME280;4389;41.932;25.904;2022-09-01T11:30:36;100014.38;;;33.47;36.99
8705;BME280;4389;41.932;25.904;2022-09-01T11:33:26;100005.19;;;33.38;36.85
8705;BME280;4389;41.932;25.904;2022-09-01T11:36:00;99998.78;;;33.24;37.04
8705;BME280;4389;41.932;25.904;2022-09-01T11:38:33;100001.94;;;32.94;37.80
8705;BME280;4389;41.932;25.904;2022-09-01T11:41:03;99991.34;;;32.59;38.04
8705;BME280;4389;41.932;25.904;2022-09-01T11:43:30;100001.53;;;32.82;37.64
8705;BME280;4389;41.932;25.904;2022-09-01T11:46:04;99995.84;;;33.39;37.30
8705;BME280;4389;41.932;25.904;2022-09-01T11:48:35;100007.59;;;33.82;36.60
8705;BME280;4389;41.932;25.904;2022-09-01T11:51:02;99996.28;;;33.83;36.12
8705;BME280;4389;41.932;25.904;2022-09-01T11:53:30;99997.34;;;34.01;35.68
8705;BME280;4389;41.932;25.904;2022-09-01T11:56:12;99990.44;;;34.03;34.92
8705;BME280;4389;41.932;25.904;2022-09-01T11:58:40;99991.19;;;33.77;35.09
8705;BME280;4389;41.932;25.904;2022-09-01T12:01:14;99985.28;;;33.83;35.57
8705;BME280;4389;41.932;25.904;2022-09-01T12:03:42;99979.38;;;34.22;34.87
8705;BME280;4389;41.932;25.904;2022-09-01T12:06:19;99981.78;;;34.42;34.24
8705;BME280;4389;41.932;25.904;2022-09-01T12:08:52;99978.31;;;34.63;33.94
8705;BME280;4389;41.932;25.904;2022-09-01T12:11:23;99972.66;;;34.87;33.08
8705;BME280;4389;41.932;25.904;2022-09-01T12:13:59;99972.03;;;34.49;33.38
8705;BME280;4389;41.932;25.904;2022-09-01T12:16:29;99970.81;;;34.42;33.95
8705;BME280;4389;41.932;25.904;2022-09-01T12:18:57;99967.56;;;34.80;34.13
8705;BME280;4389;41.932;25.904;2022-09-01T12:21:27;99957.06;;;34.82;33.37
8705;BME280;4389;41.932;25.904;2022-09-01T12:24:10;99961.16;;;34.12;33.63
8705;BME280;4389;41.932;25.904;2022-09-01T12:26:39;99965.28;;;33.96;34.55
8705;BME280;4389;41.932;25.904;2022-09-01T12:29:06;99957.34;;;34.27;34.08
8705;BME280;4389;41.932;25.904;2022-09-01T12:31:35;99958.06;;;34.59;33.25
8705;BME280;4389;41.932;25.904;2022-09-01T12:34:03;99964.47;;;34.68;32.90
8705;BME280;4389;41.932;25.904;2022-09-01T12:36:32;99951.44;;;34.60;32.25
8705;BME280;4389;41.932;25.904;2022-09-01T12:39:18;99938.72;;;34.37;32.58
8705;BME280;4389;41.932;25.904;2022-09-01T12:41:47;99927.63;;;34.56;32.52
8705;BME280;4389;41.932;25.904;2022-09-01T12:44:28;99922.91;;;34.97;32.02
8705;BME280;4389;41.932;25.904;2022-09-01T12:46:59;99927.19;;;34.89;31.80
8705;BME280;4389;41.932;25.904;2022-09-01T12:49:38;99922.28;;;35.00;31.73
8705;BME280;4389;41.932;25.904;2022-09-01T12:52:21;99911.84;;;35.24;31.41
8705;BME280;4389;41.932;25.904;2022-09-01T12:54:51;99915.25;;;35.07;31.74
8705;BME280;4389;41.932;25.904;2022-09-01T12:57:27;99908.28;;;34.74;31.75
8705;BME280;4389;41.932;25.904;2022-09-01T13:00:13;99904.19;;;34.58;31.76
8705;BME280;4389;41.932;25.904;2022-09-01T13:02:45;99905.09;;;34.67;31.90
8705;BME280;4389;41.932;25.904;2022-09-01T13:05:25;99912.13;;;34.87;31.51
8705;BME280;4389;41.932;25.904;2022-09-01T13:07:54;99906.31;;;34.61;32.28
8705;BME280;4389;41.932;25.904;2022-09-01T13:10:22;99904.97;;;34.99;31.79
8705;BME280;4389;41.932;25.904;2022-09-01T13:12:50;99902.28;;;35.21;31.28
8705;BME280;4389;41.932;25.904;2022-09-01T13:15:17;99897.22;;;35.01;31.46
8705;BME280;4389;41.932;25.904;2022-09-01T13:17:46;99893.28;;;34.80;31.88
8705;BME280;4389;41.932;25.904;2022-09-01T13:20:13;99902.78;;;34.74;31.87
8705;BME280;4389;41.932;25.904;2022-09-01T13:22:40;99898.69;;;34.85;31.36
8705;BME280;4389;41.932;25.904;2022-09-01T13:25:09;99898.88;;;34.89;30.94
8705;BME280;4389;41.932;25.904;2022-09-01T13:27:38;99901.94;;;34.60;31.77
8705;BME280;4389;41.932;25.904;2022-09-01T13:30:10;99897.25;;;34.47;31.94